Time;durP1;ratioP1;P1;durP2;ratioP2;P2;SDS_P1;SDS_P2;PMS_P1;PMS_P2;Temp;Humidity;BMP_temperature;BMP_pressure;BME280_temperature;BME280_humidity;BME280_pressure;Samples;Min_cycle;Max_cycle;Signal;HPM_P1;HPM_P2
2023/09/29 00:02:13;;;;;;;57.10;2.90;;;;;;;;;;5151815;27;20482;-70
2023/09/29 00:04:41;;;;;;;57.77;4.30;;;;;;;;;;5152270;27;20466;-70
2023/09/29 00:07:08;;;;;;;56.67;2.50;;;;;;;;;;5155881;27;20443;-70
2023/09/29 00:09:35;;;;;;;56.97;2.90;;;;;;;;;;5155964;27;20884;-70
2023/09/29 00:12:02;;;;;;;57.30;3.57;;;;;;;;;;5156127;27;20444;-70
2023/09/29 00:14:30;;;;;;;56.77;2.60;;;;;;;;;;5127233;27;20452;-70
2023/09/29 00:16:57;;;;;;;57.17;2.63;;;;;;;;;;5135122;27;20453;-70
2023/09/29 00:19:25;;;;;;;57.20;2.83;;;;;;;;;;5135108;27;20444;-70
2023/09/29 00:21:52;;;;;;;59.23;4.27;;;;;;;;;;5135043;27;21010;-70
2023/09/29 00:24:19;;;;;;;57.20;2.80;;;;;;;;;;5135194;27;20471;-70
2023/09/29 00:26:46;;;;;;;57.90;2.90;;;;;;;;;;5135168;27;20440;-70
2023/09/29 00:29:13;;;;;;;56.90;2.60;;;;;;;;;;5135070;27;20465;-70
2023/09/29 00:31:41;;;;;;;57.00;3.00;;;;;;;;;;5134966;27;20441;-70
2023/09/29 00:34:08;;;;;;;57.07;2.80;;;;;;;;;;5134644;27;20953;-70
2023/09/29 00:36:36;;;;;;;59.27;2.93;;;;;;;;;;5134983;27;20823;-70
2023/09/29 00:39:04;;;;;;;57.60;2.70;;;;;;;;;;5134586;27;20461;-71
2023/09/29 00:41:31;;;;;;;57.00;2.50;;;;;;;;;;5126775;27;20480;-70
2023/09/29 00:43:59;;;;;;;56.50;2.30;;;;;;;;;;5134570;27;20480;-70
2023/09/29 00:46:26;;;;;;;56.70;2.50;;;;;;;;;;5134780;27;20447;-70
2023/09/29 00:48:54;;;;;;;56.67;2.50;;;;;;;;;;5134567;27;20460;-70
2023/09/29 00:51:21;;;;;;;57.07;2.90;;;;;;;;;;5134608;27;20460;-70
2023/09/29 00:53:51;;;;;;;56.77;2.90;;;;;;;;;;5134976;27;20447;-71
2023/09/29 00:56:18;;;;;;;56.73;2.60;;;;;;;;;;5134373;27;20441;-70
2023/09/29 00:58:45;;;;;;;57.13;2.60;;;;;;;;;;5134229;27;20561;-70
2023/09/29 01:01:13;;;;;;;56.77;2.70;;;;;;;;;;5134487;27;20445;-70
2023/09/29 01:03:40;;;;;;;56.60;2.47;;;;;;;;;;5134470;27;20853;-70
2023/09/29 01:06:08;;;;;;;56.87;2.47;;;;;;;;;;5134403;27;20448;-70
2023/09/29 01:08:35;;;;;;;57.37;3.20;;;;;;;;;;5134229;27;20564;-70
2023/09/29 01:11:05;;;;;;;57.13;3.10;;;;;;;;;;5134041;27;20488;-70
2023/09/29 01:13:32;;;;;;;57.20;2.97;;;;;;;;;;5134400;27;20440;-70
2023/09/29 01:16:00;;;;;;;56.87;2.77;;;;;;;;;;5134252;27;20441;-70
2023/09/29 01:18:28;;;;;;;57.00;3.20;;;;;;;;;;5132985;27;20512;-70
2023/09/29 01:20:56;;;;;;;56.63;2.60;;;;;;;;;;5133998;27;20452;-71
2023/09/29 01:23:24;;;;;;;57.77;2.90;;;;;;;;;;5133759;27;20486;-71
2023/09/29 01:25:52;;;;;;;56.87;2.90;;;;;;;;;;5134142;27;20552;-70
2023/09/29 01:28:19;;;;;;;57.40;3.80;;;;;;;;;;5133745;27;20461;-70
2023/09/29 01:30:48;;;;;;;56.97;2.60;;;;;;;;;;5133701;27;20456;-70
2023/09/29 01:33:15;;;;;;;56.80;3.13;;;;;;;;;;5133752;27;20539;-70
2023/09/29 01:35:43;;;;;;;57.00;2.73;;;;;;;;;;5133814;27;20823;-70
2023/09/29 01:38:10;;;;;;;56.87;2.63;;;;;;;;;;5133443;27;20472;-70
2023/09/29 01:40:38;;;;;;;56.97;2.70;;;;;;;;;;5133812;27;20441;-70
2023/09/29 01:43:07;;;;;;;56.83;2.60;;;;;;;;;;5133736;27;20484;-70
2023/09/29 01:45:34;;;;;;;56.70;2.60;;;;;;;;;;5133538;27;20887;-70
2023/09/29 01:48:01;;;;;;;56.60;2.70;;;;;;;;;;5129082;27;21020;-70
2023/09/29 01:50:28;;;;;;;57.00;2.87;;;;;;;;;;5136148;27;20443;-70
2023/09/29 01:52:55;;;;;;;57.03;2.70;;;;;;;;;;5137936;27;20447;-70
2023/09/29 01:55:22;;;;;;;56.77;2.50;;;;;;;;;;5141769;27;20446;-70
2023/09/29 01:57:50;;;;;;;56.80;2.60;;;;;;;;;;5139041;27;20463;-70
2023/09/29 02:00:20;;;;;;;57.27;3.00;;;;;;;;;;5144908;27;20454;-70
2023/09/29 02:02:47;;;;;;;56.67;2.73;;;;;;;;;;5139707;27;20488;-70
2023/09/29 02:05:16;;;;;;;57.00;2.80;;;;;;;;;;5142458;27;20448;-70
2023/09/29 02:07:43;;;;;;;57.10;2.60;;;;;;;;;;5148627;27;20537;-70
2023/09/29 02:10:11;;;;;;;57.47;3.10;;;;;;;;;;5141638;27;20447;-70
2023/09/29 02:12:46;;;;;;;56.80;2.50;;;;;;;;;;5140906;27;20441;-70
2023/09/29 02:15:13;;;;;;;56.80;2.67;;;;;;;;;;5141481;27;20448;-70
2023/09/29 02:17:42;;;;;;;56.70;2.43;;;;;;;;;;5141363;27;20473;-71
2023/09/29 02:20:12;;;;;;;56.87;2.80;;;;;;;;;;5141186;27;20453;-70
2023/09/29 02:22:39;;;;;;;56.77;2.87;;;;;;;;;;5132826;27;21030;-70
2023/09/29 02:25:08;;;;;;;57.87;3.67;;;;;;;;;;5141136;27;20449;-70
2023/09/29 02:27:36;;;;;;;56.50;2.50;;;;;;;;;;5132592;27;20464;-70
2023/09/29 02:30:03;;;;;;;56.77;2.30;;;;;;;;;;5140796;27;21009;-70
2023/09/29 02:32:30;;;;;;;57.17;3.00;;;;;;;;;;5141255;27;20445;-69
2023/09/29 02:34:59;;;;;;;57.00;2.60;;;;;;;;;;5132678;27;20494;-69
2023/09/29 02:37:26;;;;;;;57.00;2.70;;;;;;;;;;5132348;27;20466;-69
2023/09/29 02:39:54;;;;;;;57.53;2.80;;;;;;;;;;5132247;27;20445;-69
2023/09/29 02:42:22;;;;;;;56.97;2.80;;;;;;;;;;5132477;27;20450;-70
2023/09/29 02:44:49;;;;;;;57.00;2.73;;;;;;;;;;5132616;27;20444;-70
2023/09/29 02:47:16;;;;;;;56.37;2.50;;;;;;;;;;5132222;27;21007;-71
2023/09/29 02:49:43;;;;;;;56.67;2.70;;;;;;;;;;5132202;27;20460;-70
2023/09/29 02:52:12;;;;;;;56.57;2.50;;;;;;;;;;5132213;27;20452;-69
2023/09/29 02:54:39;;;;;;;57.27;3.07;;;;;;;;;;5132490;27;20445;-70
2023/09/29 02:57:07;;;;;;;57.30;2.80;;;;;;;;;;5132106;27;20449;-69
2023/09/29 02:59:34;;;;;;;56.87;2.87;;;;;;;;;;5132158;27;20445;-69
2023/09/29 03:02:03;;;;;;;57.70;3.23;;;;;;;;;;5132180;27;20451;-70
2023/09/29 03:04:30;;;;;;;56.37;2.50;;;;;;;;;;5131847;27;20999;-69
2023/09/29 03:06:58;;;;;;;57.30;3.57;;;;;;;;;;5131882;27;20808;-69
2023/09/29 03:09:29;;;;;;;57.50;2.90;;;;;;;;;;5131919;27;20976;-70
2023/09/29 03:11:58;;;;;;;57.40;3.27;;;;;;;;;;5132105;27;20475;-70
2023/09/29 03:14:26;;;;;;;58.07;2.77;;;;;;;;;;5131893;27;20894;-70
2023/09/29 03:16:54;;;;;;;56.47;2.50;;;;;;;;;;5131894;27;20449;-69
2023/09/29 03:19:21;;;;;;;56.77;2.73;;;;;;;;;;5132855;27;20444;-69
2023/09/29 03:21:49;;;;;;;57.10;2.50;;;;;;;;;;5152540;27;20447;-70
2023/09/29 03:24:16;;;;;;;56.70;2.40;;;;;;;;;;5152373;27;20972;-69
2023/09/29 03:26:49;;;;;;;57.10;2.40;;;;;;;;;;5152627;27;20448;-68
2023/09/29 03:29:17;;;;;;;56.67;2.60;;;;;;;;;;5152206;27;20528;-69
2023/09/29 03:31:44;;;;;;;59.27;2.80;;;;;;;;;;5152493;27;20496;-70
2023/09/29 03:34:11;;;;;;;56.37;2.30;;;;;;;;;;5152379;27;20492;-69
2023/09/29 03:36:38;;;;;;;56.67;2.40;;;;;;;;;;5152564;27;20440;-70
2023/09/29 03:39:06;;;;;;;56.50;2.40;;;;;;;;;;5152160;27;20463;-70
2023/09/29 03:41:34;;;;;;;57.10;3.03;;;;;;;;;;5155184;27;20483;-70
2023/09/29 03:44:02;;;;;;;56.80;2.60;;;;;;;;;;5156647;27;20506;-71
2023/09/29 03:46:29;;;;;;;56.40;2.13;;;;;;;;;;5156358;27;20447;-70
2023/09/29 03:48:57;;;;;;;57.17;3.17;;;;;;;;;;5141402;27;20472;-70
2023/09/29 03:51:24;;;;;;;56.57;2.47;;;;;;;;;;5143066;27;20487;-70
2023/09/29 03:53:51;;;;;;;57.40;2.63;;;;;;;;;;5144336;27;20950;-71
2023/09/29 03:56:18;;;;;;;56.90;2.80;;;;;;;;;;5153486;27;20440;-70
2023/09/29 03:58:46;;;;;;;56.57;2.40;;;;;;;;;;5156126;27;20959;-71
2023/09/29 04:01:15;;;;;;;56.80;2.70;;;;;;;;;;5156199;27;20455;-70
2023/09/29 04:03:42;;;;;;;56.60;2.60;;;;;;;;;;5127444;27;20987;-70
2023/09/29 04:06:09;;;;;;;56.80;2.80;;;;;;;;;;5135694;27;20444;-71
2023/09/29 04:08:36;;;;;;;56.87;2.53;;;;;;;;;;5155741;27;20554;-70
2023/09/29 04:11:04;;;;;;;57.73;2.47;;;;;;;;;;5155797;27;20447;-71
2023/09/29 04:13:31;;;;;;;57.10;2.80;;;;;;;;;;5155971;27;20439;-71
2023/09/29 04:15:59;;;;;;;56.80;2.60;;;;;;;;;;5156148;27;20471;-71
2023/09/29 04:18:28;;;;;;;57.40;2.90;;;;;;;;;;5156068;27;20857;-70
2023/09/29 04:20:55;;;;;;;56.33;2.60;;;;;;;;;;5155940;27;20539;-71
2023/09/29 04:23:23;;;;;;;56.73;2.80;;;;;;;;;;5155670;27;21002;-68
2023/09/29 04:25:51;;;;;;;56.63;2.30;;;;;;;;;;5155830;27;20497;-70
2023/09/29 04:28:18;;;;;;;56.73;3.20;;;;;;;;;;5155306;27;20468;-70
2023/09/29 04:30:46;;;;;;;56.90;2.43;;;;;;;;;;5155566;27;20927;-70
2023/09/29 04:33:13;;;;;;;56.97;2.73;;;;;;;;;;5155887;27;20439;-70
2023/09/29 04:35:42;;;;;;;58.80;3.10;;;;;;;;;;5126521;27;20537;-70
2023/09/29 04:38:09;;;;;;;56.47;2.50;;;;;;;;;;5134881;27;20950;-70
2023/09/29 04:40:37;;;;;;;56.60;2.57;;;;;;;;;;5134665;27;20472;-71
2023/09/29 04:43:05;;;;;;;56.53;2.70;;;;;;;;;;5134914;27;20521;-70
2023/09/29 04:45:33;;;;;;;56.47;2.63;;;;;;;;;;5134822;27;20444;-70
2023/09/29 04:48:00;;;;;;;56.30;2.40;;;;;;;;;;5134656;27;20465;-70
2023/09/29 04:50:28;;;;;;;56.40;2.50;;;;;;;;;;5134305;27;20459;-70
2023/09/29 04:52:56;;;;;;;57.20;2.70;;;;;;;;;;5134341;27;20453;-70
2023/09/29 04:55:23;;;;;;;56.67;2.50;;;;;;;;;;5134331;27;20445;-71
2023/09/29 04:57:52;;;;;;;57.00;3.03;;;;;;;;;;5134566;27;20487;-71
2023/09/29 05:00:19;;;;;;;57.30;3.43;;;;;;;;;;5134260;27;20448;-71
2023/09/29 05:02:46;;;;;;;57.27;3.33;;;;;;;;;;5134602;27;20437;-70
2023/09/29 05:05:13;;;;;;;57.60;3.00;;;;;;;;;;5134417;27;20851;-71
2023/09/29 05:07:43;;;;;;;60.40;3.07;;;;;;;;;;5134092;27;20471;-71
2023/09/29 05:10:13;;;;;;;56.77;2.80;;;;;;;;;;5134088;27;20584;-70
2023/09/29 05:12:40;;;;;;;56.80;3.10;;;;;;;;;;5134337;27;20481;-71
2023/09/29 05:15:08;;;;;;;56.53;2.30;;;;;;;;;;5134295;27;20437;-69
2023/09/29 05:17:35;;;;;;;56.47;2.50;;;;;;;;;;5134417;27;20464;-69
2023/09/29 05:20:03;;;;;;;56.43;2.40;;;;;;;;;;5134050;27;20441;-70
2023/09/29 05:22:31;;;;;;;58.87;3.30;;;;;;;;;;5133999;27;20449;-70
2023/09/29 05:24:58;;;;;;;56.60;2.83;;;;;;;;;;5134108;27;20567;-70
2023/09/29 05:27:29;;;;;;;56.70;3.10;;;;;;;;;;5133863;27;20465;-69
2023/09/29 05:29:56;;;;;;;56.77;2.60;;;;;;;;;;5134035;27;20457;-70
2023/09/29 05:32:23;;;;;;;56.87;3.10;;;;;;;;;;5133724;27;20441;-70
2023/09/29 05:34:50;;;;;;;57.40;2.97;;;;;;;;;;5133734;27;20440;-70
2023/09/29 05:37:17;;;;;;;57.07;3.70;;;;;;;;;;5133784;27;20457;-70
2023/09/29 05:39:45;;;;;;;56.67;2.80;;;;;;;;;;5137656;27;20448;-70
2023/09/29 05:42:12;;;;;;;57.00;3.40;;;;;;;;;;5154540;27;20446;-70
2023/09/29 05:44:40;;;;;;;56.80;2.90;;;;;;;;;;5154264;27;20575;-70
2023/09/29 05:47:07;;;;;;;57.47;2.93;;;;;;;;;;5154129;27;20946;-70
2023/09/29 05:49:35;;;;;;;56.60;2.60;;;;;;;;;;5131174;27;20949;-70
2023/09/29 05:52:02;;;;;;;56.53;2.70;;;;;;;;;;5140815;27;20445;-70
2023/09/29 05:54:29;;;;;;;56.30;2.43;;;;;;;;;;5141778;27;20443;-70
2023/09/29 05:56:56;;;;;;;56.27;2.40;;;;;;;;;;5141972;27;20539;-70
2023/09/29 05:59:23;;;;;;;57.30;2.70;;;;;;;;;;5141240;27;20440;-70
2023/09/29 06:01:52;;;;;;;56.50;2.60;;;;;;;;;;5137725;27;20823;-70
2023/09/29 06:04:19;;;;;;;57.17;3.03;;;;;;;;;;5144428;27;20595;-70
2023/09/29 06:06:46;;;;;;;56.40;2.50;;;;;;;;;;5153808;27;20946;-70
2023/09/29 06:09:13;;;;;;;56.40;2.70;;;;;;;;;;5153645;27;20962;-71
2023/09/29 06:11:40;;;;;;;56.80;2.80;;;;;;;;;;5153717;27;20830;-69
2023/09/29 06:14:07;;;;;;;56.80;2.70;;;;;;;;;;5153650;27;20436;-70
2023/09/29 06:16:34;;;;;;;57.87;4.53;;;;;;;;;;5153435;27;20447;-70
2023/09/29 06:19:03;;;;;;;57.20;2.53;;;;;;;;;;5153542;27;20502;-70
2023/09/29 06:21:30;;;;;;;57.97;2.80;;;;;;;;;;5153491;27;20444;-70
2023/09/29 06:23:57;;;;;;;56.37;2.40;;;;;;;;;;5153425;27;21138;-70
2023/09/29 06:26:25;;;;;;;56.50;2.40;;;;;;;;;;5153546;27;20475;-70
2023/09/29 06:28:52;;;;;;;56.47;2.37;;;;;;;;;;5147468;27;20554;-70
2023/09/29 06:31:19;;;;;;;56.60;2.87;;;;;;;;;;5124609;27;20456;-69
2023/09/29 06:33:46;;;;;;;56.40;2.70;;;;;;;;;;5124468;27;20532;-69
2023/09/29 06:36:15;;;;;;;56.40;2.67;;;;;;;;;;5139571;27;20523;-69
2023/09/29 06:38:42;;;;;;;56.77;3.20;;;;;;;;;;5126140;27;20476;-69
2023/09/29 06:41:09;;;;;;;56.40;2.50;;;;;;;;;;5130681;27;20441;-69
2023/09/29 06:43:37;;;;;;;56.27;2.40;;;;;;;;;;5151294;27;20958;-69
2023/09/29 06:46:04;;;;;;;56.63;2.83;;;;;;;;;;5138590;27;20459;-68
2023/09/29 06:48:31;;;;;;;57.07;3.10;;;;;;;;;;5133506;27;20457;-68
2023/09/29 06:50:59;;;;;;;56.40;2.73;;;;;;;;;;5144246;27;20472;-68
2023/09/29 06:53:28;;;;;;;56.27;2.87;;;;;;;;;;5152996;27;20504;-69
2023/09/29 06:55:56;;;;;;;56.13;2.27;;;;;;;;;;5152996;27;20515;-68
2023/09/29 06:58:23;;;;;;;56.70;2.90;;;;;;;;;;5152566;27;20555;-68
2023/09/29 07:00:51;;;;;;;58.20;2.50;;;;;;;;;;5153088;27;20448;-68
2023/09/29 07:03:18;;;;;;;58.20;3.43;;;;;;;;;;5152920;27;20447;-68
2023/09/29 07:05:46;;;;;;;56.40;2.60;;;;;;;;;;5152568;27;20494;-68
2023/09/29 07:08:13;;;;;;;56.57;2.50;;;;;;;;;;5152438;27;21028;-68
2023/09/29 07:10:43;;;;;;;56.43;2.47;;;;;;;;;;5152457;27;20450;-68
2023/09/29 07:13:10;;;;;;;56.63;2.70;;;;;;;;;;5152940;27;20444;-68
2023/09/29 07:15:37;;;;;;;56.50;2.40;;;;;;;;;;5152587;27;20509;-67
2023/09/29 07:18:05;;;;;;;56.57;2.70;;;;;;;;;;5152514;27;20459;-68
2023/09/29 07:20:32;;;;;;;56.37;2.60;;;;;;;;;;5152510;27;20448;-69
2023/09/29 07:22:59;;;;;;;56.33;2.50;;;;;;;;;;5152477;27;20440;-68
2023/09/29 07:25:26;;;;;;;56.70;2.57;;;;;;;;;;5152107;27;20548;-68
2023/09/29 07:27:54;;;;;;;56.37;2.97;;;;;;;;;;5152324;27;20999;-68
2023/09/29 07:30:22;;;;;;;56.50;2.33;;;;;;;;;;5152339;27;20505;-69
2023/09/29 07:32:49;;;;;;;56.43;2.60;;;;;;;;;;5123445;27;20447;-70
2023/09/29 07:35:16;;;;;;;56.50;2.70;;;;;;;;;;5131799;27;20476;-70
2023/09/29 07:37:43;;;;;;;57.90;2.70;;;;;;;;;;5131328;27;20669;-69
2023/09/29 07:40:11;;;;;;;56.80;2.90;;;;;;;;;;5131667;27;20441;-69
2023/09/29 07:42:38;;;;;;;57.20;2.70;;;;;;;;;;5131654;27;20448;-69
2023/09/29 07:45:07;;;;;;;56.67;2.70;;;;;;;;;;5131610;27;20477;-69
2023/09/29 07:47:34;;;;;;;57.00;2.47;;;;;;;;;;5131424;27;20467;-69
2023/09/29 07:50:01;;;;;;;56.60;2.50;;;;;;;;;;5132492;27;20563;-69
2023/09/29 07:52:29;;;;;;;57.70;2.40;;;;;;;;;;5122404;27;20451;-69
2023/09/29 07:54:56;;;;;;;56.70;2.97;;;;;;;;;;5143828;27;20432;-68
2023/09/29 07:57:23;;;;;;;56.17;2.27;;;;;;;;;;5141086;27;20492;-69
2023/09/29 07:59:50;;;;;;;56.60;2.30;;;;;;;;;;5143569;27;20816;-69
2023/09/29 08:02:19;;;;;;;56.40;2.30;;;;;;;;;;5152288;27;20450;-68
2023/09/29 08:04:46;;;;;;;56.97;3.00;;;;;;;;;;5151936;27;20488;-69
2023/09/29 08:07:14;;;;;;;56.27;2.40;;;;;;;;;;5152013;27;20466;-69
2023/09/29 08:09:41;;;;;;;56.17;2.30;;;;;;;;;;5151940;27;20447;-69
2023/09/29 08:12:08;;;;;;;56.27;2.10;;;;;;;;;;5152062;27;20448;-69
2023/09/29 08:14:35;;;;;;;57.10;2.33;;;;;;;;;;5152076;27;20440;-69
2023/09/29 08:17:02;;;;;;;56.60;2.50;;;;;;;;;;5152082;27;20455;-68
2023/09/29 08:19:31;;;;;;;56.50;3.20;;;;;;;;;;5151747;27;20443;-68
2023/09/29 08:21:58;;;;;;;57.40;2.70;;;;;;;;;;5152251;27;20443;-68
2023/09/29 08:24:25;;;;;;;57.07;2.60;;;;;;;;;;5152076;27;20490;-69
2023/09/29 08:26:52;;;;;;;56.37;2.60;;;;;;;;;;5153431;27;20534;-68
2023/09/29 08:29:19;;;;;;;56.67;2.80;;;;;;;;;;5156206;27;20447;-69
2023/09/29 08:31:46;;;;;;;56.77;2.70;;;;;;;;;;5155925;27;20446;-69
2023/09/29 08:34:13;;;;;;;56.90;2.97;;;;;;;;;;5156042;27;20447;-69
2023/09/29 08:36:42;;;;;;;56.27;2.37;;;;;;;;;;5156209;27;20452;-68
2023/09/29 08:39:10;;;;;;;56.70;2.20;;;;;;;;;;5155300;27;20994;-68
2023/09/29 08:41:39;;;;;;;56.67;2.10;;;;;;;;;;5155615;27;20808;-66
2023/09/29 08:44:08;;;;;;;56.37;2.10;;;;;;;;;;5155636;27;20444;-68
2023/09/29 08:46:35;;;;;;;57.37;2.73;;;;;;;;;;5155254;27;20487;-67
2023/09/29 08:49:04;;;;;;;56.77;2.30;;;;;;;;;;5155526;27;20464;-68
2023/09/29 08:51:33;;;;;;;57.40;2.50;;;;;;;;;;5155378;27;20451;-67
2023/09/29 08:54:02;;;;;;;56.37;2.33;;;;;;;;;;5155404;27;20958;-67
2023/09/29 08:56:30;;;;;;;56.27;2.50;;;;;;;;;;5155792;27;20444;-68
2023/09/29 08:58:57;;;;;;;56.50;2.53;;;;;;;;;;5154860;27;20471;-69
2023/09/29 09:01:24;;;;;;;58.40;2.93;;;;;;;;;;5155564;27;20539;-68
2023/09/29 09:03:51;;;;;;;57.27;2.30;;;;;;;;;;5155374;27;20452;-69
2023/09/29 09:06:23;;;;;;;56.37;2.40;;;;;;;;;;5155214;27;20490;-69
2023/09/29 09:08:50;;;;;;;56.50;2.30;;;;;;;;;;5154738;27;20504;-68
2023/09/29 09:11:19;;;;;;;57.27;2.30;;;;;;;;;;5155259;27;20444;-68
2023/09/29 09:13:58;;;;;;;56.60;2.43;;;;;;;;;;5155111;27;20535;-69
2023/09/29 09:16:25;;;;;;;56.20;2.10;;;;;;;;;;5155375;27;20489;-69
2023/09/29 09:18:53;;;;;;;56.47;2.37;;;;;;;;;;5154955;27;20455;-68
2023/09/29 09:21:20;;;;;;;56.60;2.50;;;;;;;;;;5155057;27;20447;-68
2023/09/29 09:23:47;;;;;;;57.60;2.90;;;;;;;;;;5154753;27;20935;-68
2023/09/29 09:26:15;;;;;;;56.60;2.70;;;;;;;;;;5155036;27;20479;-68
2023/09/29 09:28:43;;;;;;;57.13;2.90;;;;;;;;;;5154682;27;20471;-69
2023/09/29 09:31:12;;;;;;;56.77;3.00;;;;;;;;;;5154694;27;20451;-69
2023/09/29 09:33:39;;;;;;;56.57;2.30;;;;;;;;;;5154827;27;20444;-69
2023/09/29 09:36:09;;;;;;;57.43;2.90;;;;;;;;;;5154609;27;20436;-69
2023/09/29 09:38:36;;;;;;;56.27;2.03;;;;;;;;;;5152937;27;20959;-71
2023/09/29 09:41:04;;;;;;;56.50;2.10;;;;;;;;;;5154538;27;20450;-68
2023/09/29 09:43:34;;;;;;;56.27;2.10;;;;;;;;;;5154418;27;20443;-69
2023/09/29 09:46:06;;;;;;;56.40;1.90;;;;;;;;;;5154442;27;20717;-69
2023/09/29 09:48:39;;;;;;;56.97;2.90;;;;;;;;;;5146514;27;20512;-70
2023/09/29 09:51:07;;;;;;;56.17;2.13;;;;;;;;;;5141754;27;20547;-68
2023/09/29 09:53:37;;;;;;;57.40;2.53;;;;;;;;;;5133368;27;20452;-68
2023/09/29 09:56:06;;;;;;;55.97;1.90;;;;;;;;;;5141890;27;20546;-69
2023/09/29 09:58:33;;;;;;;57.03;2.47;;;;;;;;;;5151137;27;20551;-68
2023/09/29 10:01:01;;;;;;;56.27;2.30;;;;;;;;;;5153841;27;20444;-68
2023/09/29 10:03:30;;;;;;;56.40;2.30;;;;;;;;;;5152564;27;20443;-68
2023/09/29 10:05:59;;;;;;;56.30;2.60;;;;;;;;;;5133622;27;20572;-68
2023/09/29 10:08:29;;;;;;;56.40;2.17;;;;;;;;;;5133317;27;20842;-68
2023/09/29 10:11:10;;;;;;;56.50;2.80;;;;;;;;;;5133296;27;20815;-68
2023/09/29 10:13:38;;;;;;;55.73;1.80;;;;;;;;;;5132951;27;20536;-68
2023/09/29 10:16:06;;;;;;;56.47;2.33;;;;;;;;;;5132789;27;20493;-69
2023/09/29 10:18:34;;;;;;;56.40;2.20;;;;;;;;;;5132915;27;20464;-69
2023/09/29 10:21:09;;;;;;;56.30;2.03;;;;;;;;;;5132994;27;20440;-69
2023/09/29 10:23:46;;;;;;;56.77;2.83;;;;;;;;;;5133241;27;20448;-69
2023/09/29 10:26:13;;;;;;;56.10;2.07;;;;;;;;;;5144634;27;21058;-69
2023/09/29 10:28:41;;;;;;;56.10;2.37;;;;;;;;;;5153311;27;20467;-69
2023/09/29 10:31:09;;;;;;;55.67;1.90;;;;;;;;;;5153599;27;20829;-70
2023/09/29 10:33:51;;;;;;;57.60;3.07;;;;;;;;;;5153532;27;20443;-70
2023/09/29 10:36:19;;;;;;;55.60;1.80;;;;;;;;;;5153414;27;20468;-69
2023/09/29 10:38:47;;;;;;;55.43;1.97;;;;;;;;;;5153026;27;20464;-69
2023/09/29 10:41:15;;;;;;;56.37;2.17;;;;;;;;;;5153047;27;20467;-69
2023/09/29 10:43:46;;;;;;;55.83;2.17;;;;;;;;;;5153284;27;20451;-69
2023/09/29 10:46:13;;;;;;;56.00;1.70;;;;;;;;;;5153203;27;20484;-69
2023/09/29 10:48:46;;;;;;;56.10;2.10;;;;;;;;;;5152917;27;20818;-69
2023/09/29 10:51:22;;;;;;;56.00;2.10;;;;;;;;;;5152777;27;20459;-69
2023/09/29 10:53:49;;;;;;;55.67;1.80;;;;;;;;;;5153317;27;20435;-69
2023/09/29 10:56:19;;;;;;;58.10;2.90;;;;;;;;;;5153185;27;20501;-68
2023/09/29 10:58:48;;;;;;;56.00;2.33;;;;;;;;;;5153085;27;20824;-69
2023/09/29 11:01:21;;;;;;;55.50;2.03;;;;;;;;;;5153052;27;20450;-68
2023/09/29 11:03:50;;;;;;;55.57;1.90;;;;;;;;;;5153142;27;20974;-68
2023/09/29 11:06:18;;;;;;;55.80;1.90;;;;;;;;;;5152882;27;20475;-69
2023/09/29 11:08:52;;;;;;;55.70;1.80;;;;;;;;;;5152915;27;20579;-69
2023/09/29 11:11:19;;;;;;;55.87;2.17;;;;;;;;;;5153140;27;20475;-69
2023/09/29 11:13:53;;;;;;;56.27;2.07;;;;;;;;;;5152835;27;20466;-70
2023/09/29 11:16:24;;;;;;;55.30;1.70;;;;;;;;;;5152994;27;20440;-69
2023/09/29 11:18:56;;;;;;;55.67;1.80;;;;;;;;;;5153027;27;20506;-69
2023/09/29 11:21:32;;;;;;;55.40;1.90;;;;;;;;;;5152723;27;20939;-69
2023/09/29 11:24:04;;;;;;;55.10;1.77;;;;;;;;;;5152993;27;20449;-70
2023/09/29 11:26:31;;;;;;;55.50;2.17;;;;;;;;;;5152742;27;20483;-71
2023/09/29 11:28:59;;;;;;;55.30;1.97;;;;;;;;;;5151385;27;20459;-69
2023/09/29 11:31:26;;;;;;;54.93;1.90;;;;;;;;;;5152149;27;20539;-69
2023/09/29 11:33:56;;;;;;;55.10;1.73;;;;;;;;;;5152862;27;20450;-70
2023/09/29 11:36:27;;;;;;;55.50;1.90;;;;;;;;;;5152729;27;20516;-70
2023/09/29 11:38:54;;;;;;;55.43;2.10;;;;;;;;;;5152298;27;20476;-70
2023/09/29 11:41:22;;;;;;;54.90;1.97;;;;;;;;;;5153094;27;20443;-70
2023/09/29 11:43:49;;;;;;;55.50;2.03;;;;;;;;;;5158447;27;20465;-70
2023/09/29 11:46:17;;;;;;;55.70;1.87;;;;;;;;;;5174255;27;20490;-68
2023/09/29 11:48:44;;;;;;;55.67;1.90;;;;;;;;;;5159901;27;20522;-70
2023/09/29 11:51:14;;;;;;;55.50;1.97;;;;;;;;;;5134637;27;20456;-68
2023/09/29 11:53:42;;;;;;;55.27;1.83;;;;;;;;;;5154762;27;20447;-67
2023/09/29 11:56:09;;;;;;;55.20;1.70;;;;;;;;;;5148154;27;20445;-70
2023/09/29 11:58:37;;;;;;;55.50;1.83;;;;;;;;;;5158940;27;20472;-69
2023/09/29 12:01:06;;;;;;;54.93;1.70;;;;;;;;;;5142975;27;20449;-67
2023/09/29 12:03:34;;;;;;;55.10;1.90;;;;;;;;;;5157060;27;20938;-68
2023/09/29 12:06:02;;;;;;;55.17;2.20;;;;;;;;;;5157655;27;20927;-69
2023/09/29 12:08:30;;;;;;;55.43;2.20;;;;;;;;;;5157353;27;20473;-67
2023/09/29 12:10:58;;;;;;;54.70;1.80;;;;;;;;;;5158242;27;20451;-69
2023/09/29 12:13:26;;;;;;;55.43;2.47;;;;;;;;;;5158231;27;20448;-70
2023/09/29 12:15:53;;;;;;;56.20;1.90;;;;;;;;;;5157407;27;20463;-68
2023/09/29 12:18:20;;;;;;;55.47;2.20;;;;;;;;;;5157324;27;20535;-67
2023/09/29 12:20:52;;;;;;;55.20;1.70;;;;;;;;;;5156979;27;20444;-69
2023/09/29 12:23:19;;;;;;;55.00;2.30;;;;;;;;;;5156309;27;20452;-69
2023/09/29 12:25:48;;;;;;;54.80;2.07;;;;;;;;;;5156418;27;20460;-70
2023/09/29 12:28:15;;;;;;;54.90;2.00;;;;;;;;;;5156516;27;20457;-69
2023/09/29 12:30:44;;;;;;;55.40;2.17;;;;;;;;;;5157130;27;20889;-69
2023/09/29 12:33:11;;;;;;;54.67;1.80;;;;;;;;;;5156127;27;20433;-71
2023/09/29 12:35:38;;;;;;;54.70;1.83;;;;;;;;;;5148032;27;20444;-71
2023/09/29 12:38:05;;;;;;;54.83;2.13;;;;;;;;;;5145370;27;20463;-71
2023/09/29 12:40:33;;;;;;;54.80;2.03;;;;;;;;;;5136494;27;20464;-71
2023/09/29 12:43:02;;;;;;;55.13;2.30;;;;;;;;;;5136076;27;20440;-71
2023/09/29 12:45:29;;;;;;;54.40;2.10;;;;;;;;;;5136355;27;20490;-71
2023/09/29 12:47:57;;;;;;;54.57;2.00;;;;;;;;;;5137485;27;20492;-71
2023/09/29 12:50:25;;;;;;;54.77;2.07;;;;;;;;;;5135222;27;20460;-69
2023/09/29 12:52:52;;;;;;;54.37;2.20;;;;;;;;;;5135756;27;20480;-70
2023/09/29 12:55:20;;;;;;;54.77;2.00;;;;;;;;;;5135281;27;20531;-71
2023/09/29 12:57:47;;;;;;;54.20;1.90;;;;;;;;;;5135042;27;20488;-70
2023/09/29 13:00:18;;;;;;;54.27;2.03;;;;;;;;;;5138251;27;20528;-70
2023/09/29 13:02:47;;;;;;;54.80;1.80;;;;;;;;;;5143391;27;20508;-70
2023/09/29 13:05:14;;;;;;;54.30;2.03;;;;;;;;;;5135246;27;20865;-70
2023/09/29 13:07:41;;;;;;;54.50;2.27;;;;;;;;;;5143613;27;20493;-70
2023/09/29 13:10:09;;;;;;;54.40;2.00;;;;;;;;;;5143800;27;20447;-70
2023/09/29 13:12:36;;;;;;;54.30;1.90;;;;;;;;;;5143505;27;20444;-71
2023/09/29 13:15:05;;;;;;;54.10;1.97;;;;;;;;;;5143174;27;20437;-71
2023/09/29 13:17:33;;;;;;;54.60;2.40;;;;;;;;;;5134426;27;20571;-71
2023/09/29 13:20:00;;;;;;;54.30;2.23;;;;;;;;;;5134737;27;20507;-70
2023/09/29 13:22:27;;;;;;;54.90;2.43;;;;;;;;;;5134849;27;20441;-70
2023/09/29 13:24:54;;;;;;;54.60;2.10;;;;;;;;;;5134644;27;20448;-69
2023/09/29 13:27:22;;;;;;;54.40;2.10;;;;;;;;;;5134391;27;20460;-70
2023/09/29 13:29:50;;;;;;;54.90;2.10;;;;;;;;;;5134272;27;20440;-70
2023/09/29 13:32:17;;;;;;;54.47;1.83;;;;;;;;;;5134655;27;20453;-71
2023/09/29 13:34:45;;;;;;;55.30;1.97;;;;;;;;;;5134353;27;20445;-71
2023/09/29 13:37:16;;;;;;;55.50;2.20;;;;;;;;;;5134237;27;20484;-71
2023/09/29 13:39:44;;;;;;;55.27;2.00;;;;;;;;;;5134265;27;20456;-71
2023/09/29 13:42:11;;;;;;;55.67;2.10;;;;;;;;;;5134346;27;20447;-69
2023/09/29 13:44:38;;;;;;;56.23;2.17;;;;;;;;;;5133893;27;20448;-71
2023/09/29 13:47:05;;;;;;;56.00;2.13;;;;;;;;;;5133964;27;20441;-69
2023/09/29 13:49:32;;;;;;;56.17;2.03;;;;;;;;;;5130357;27;20945;-70
2023/09/29 13:52:01;;;;;;;56.10;2.13;;;;;;;;;;5140229;27;20448;-70
2023/09/29 13:54:29;;;;;;;56.30;2.17;;;;;;;;;;5139336;27;20445;-72
2023/09/29 13:56:57;;;;;;;56.07;2.10;;;;;;;;;;5150526;27;20483;-70
2023/09/29 13:59:24;;;;;;;56.70;2.10;;;;;;;;;;5150528;27;20460;-70
2023/09/29 14:01:52;;;;;;;55.77;2.00;;;;;;;;;;5135694;27;20451;-69
2023/09/29 14:04:19;;;;;;;55.90;1.90;;;;;;;;;;5134378;27;20612;-70
2023/09/29 14:06:46;;;;;;;58.90;2.20;;;;;;;;;;5134036;27;20467;-70
2023/09/29 14:09:14;;;;;;;55.97;2.00;;;;;;;;;;5133614;27;20457;-70
2023/09/29 14:11:42;;;;;;;56.20;2.10;;;;;;;;;;5133689;27;20448;-69
2023/09/29 14:14:09;;;;;;;56.10;2.10;;;;;;;;;;5125606;27;20441;-70
2023/09/29 14:16:36;;;;;;;55.80;2.00;;;;;;;;;;5133669;27;21011;-69
2023/09/29 14:19:03;;;;;;;56.40;1.93;;;;;;;;;;5133427;27;20471;-70
2023/09/29 14:21:30;;;;;;;56.10;2.20;;;;;;;;;;5133781;27;20451;-70
2023/09/29 14:23:59;;;;;;;55.80;1.83;;;;;;;;;;5132444;27;20448;-71
2023/09/29 14:26:27;;;;;;;56.07;2.20;;;;;;;;;;5133102;27;20449;-69
2023/09/29 14:28:55;;;;;;;56.17;2.07;;;;;;;;;;5132905;27;20995;-71
2023/09/29 14:31:22;;;;;;;56.10;2.03;;;;;;;;;;5133712;27;20449;-70
2023/09/29 14:33:49;;;;;;;56.30;2.00;;;;;;;;;;5133503;27;20447;-71
2023/09/29 14:36:17;;;;;;;56.87;2.70;;;;;;;;;;5133306;27;20447;-69